Time;durP1;ratioP1;P1;durP2;ratioP2;P2;SDS_P1;SDS_P2;PMS_P1;PMS_P2;Temp;Humidity;BMP_temperature;BMP_pressure;BME280_temperature;BME280_humidity;BME280_pressure;Samples;Min_cycle;Max_cycle;Signal;HPM_P1;HPM_P2
2022/04/10 00:00:27;;;;;;;;;;;2.10;99.90;;;;;;5074525;28;19916;-72
2022/04/10 00:02:53;;;;;;;;;;;2.20;99.90;;;;;;5076075;28;19912;-72
2022/04/10 00:05:18;;;;;;;;;;;2.10;99.90;;;;;;5076419;28;20219;-72
2022/04/10 00:07:44;;;;;;;;;;;2.00;99.90;;;;;;5076754;28;19920;-73
2022/04/10 00:10:09;;;;;;;;;;;2.00;99.90;;;;;;5076210;28;19997;-73
2022/04/10 00:12:35;;;;;;;;;;;2.00;99.90;;;;;;5058521;28;20255;-72
2022/04/10 00:15:02;;;;;;;;;;;2.00;99.90;;;;;;5076244;28;19919;-72
2022/04/10 00:17:27;;;;;;;;;;;2.00;99.90;;;;;;5074423;28;19944;-72
2022/04/10 00:19:53;;;;;;;;;;;1.90;99.90;;;;;;5075493;28;19963;-72
2022/04/10 00:22:18;;;;;;;;;;;1.90;99.90;;;;;;5074916;28;19927;-72
2022/04/10 00:24:45;;;;;;;;;;;1.80;99.90;;;;;;5055783;28;19920;-72
2022/04/10 00:27:13;;;;;;;;;;;1.80;99.90;;;;;;5058262;28;20623;-72
2022/04/10 00:29:40;;;;;;;;;;;1.70;99.90;;;;;;5057500;28;19924;-72
2022/04/10 00:32:05;;;;;;;;;;;1.60;99.90;;;;;;5075795;28;19913;-72
2022/04/10 00:34:31;;;;;;;;;;;1.50;99.90;;;;;;5058386;28;20200;-72
2022/04/10 00:36:56;;;;;;;;;;;1.40;99.90;;;;;;5075985;28;19912;-72
2022/04/10 00:39:22;;;;;;;;;;;1.30;99.90;;;;;;5073564;28;19983;-72
2022/04/10 00:41:49;;;;;;;;;;;1.30;99.90;;;;;;5067175;28;19992;-72
2022/04/10 00:44:15;;;;;;;;;;;1.30;99.90;;;;;;5077488;28;19931;-72
2022/04/10 00:46:40;;;;;;;;;;;1.20;99.90;;;;;;5074181;28;19913;-72
2022/04/10 00:49:09;;;;;;;;;;;1.20;99.90;;;;;;5049694;28;21186;-72
2022/04/10 00:51:41;;;;;;;;;;;1.20;99.90;;;;;;5076221;28;19948;-72
2022/04/10 00:54:10;;;;;;;;;;;1.20;99.90;;;;;;5058049;28;19942;-72
2022/04/10 00:56:36;;;;;;;;;;;1.20;99.90;;;;;;5074494;28;19963;-72
2022/04/10 00:59:02;;;;;;;;;;;1.30;99.90;;;;;;5076527;28;20268;-72
2022/04/10 01:01:28;;;;;;;;;;;1.30;99.90;;;;;;5076187;28;20023;-72
2022/04/10 01:03:53;;;;;;;;;;;1.50;99.90;;;;;;5057685;28;19924;-71
2022/04/10 01:06:19;;;;;;;;;;;1.60;99.90;;;;;;5075982;28;19946;-72
2022/04/10 01:08:45;;;;;;;;;;;1.80;99.90;;;;;;5076214;28;19913;-71
2022/04/10 01:11:12;;;;;;;;;;;1.90;99.90;;;;;;5075518;28;20270;-71
2022/04/10 01:13:37;;;;;;;;;;;1.80;99.90;;;;;;5058339;28;19963;-72
2022/04/10 01:16:03;;;;;;;;;;;1.80;99.90;;;;;;5057984;28;19990;-71
2022/04/10 01:18:29;;;;;;;;;;;1.80;99.90;;;;;;5041444;28;20356;-72
2022/04/10 01:20:55;;;;;;;;;;;1.70;99.90;;;;;;5075494;28;19920;-71
2022/04/10 01:23:20;;;;;;;;;;;1.50;99.90;;;;;;5075448;28;20015;-72
2022/04/10 01:25:46;;;;;;;;;;;1.40;99.90;;;;;;5073841;28;19912;-72
2022/04/10 01:28:12;;;;;;;;;;;1.30;99.90;;;;;;5074506;28;19951;-72
2022/04/10 01:30:38;;;;;;;;;;;1.20;99.90;;;;;;5057423;28;19913;-71
2022/04/10 01:33:04;;;;;;;;;;;1.10;99.90;;;;;;5075279;28;19982;-72
2022/04/10 01:35:31;;;;;;;;;;;1.10;99.90;;;;;;5057163;28;19916;-72
2022/04/10 01:37:57;;;;;;;;;;;1.00;99.90;;;;;;5074075;28;19924;-72
2022/04/10 01:40:23;;;;;;;;;;;1.00;99.90;;;;;;5074859;28;20014;-71
2022/04/10 01:42:48;;;;;;;;;;;1.00;99.90;;;;;;5075098;28;20069;-71
2022/04/10 01:45:14;;;;;;;;;;;1.10;99.90;;;;;;5074881;28;19944;-72
2022/04/10 01:47:39;;;;;;;;;;;1.00;99.90;;;;;;5056332;28;19972;-72
2022/04/10 01:50:05;;;;;;;;;;;1.00;99.90;;;;;;5063674;28;19955;-72
2022/04/10 01:52:30;;;;;;;;;;;1.10;99.90;;;;;;5075037;28;19974;-72
2022/04/10 01:54:56;;;;;;;;;;;1.00;99.90;;;;;;5050074;28;19916;-72
2022/04/10 01:57:21;;;;;;;;;;;1.00;99.90;;;;;;5075287;28;19921;-72
2022/04/10 01:59:47;;;;;;;;;;;1.00;99.90;;;;;;5074148;28;20158;-72
2022/04/10 02:02:13;;;;;;;;;;;0.90;99.90;;;;;;5074754;28;19916;-72
2022/04/10 02:04:38;;;;;;;;;;;1.10;99.90;;;;;;5074301;28;19917;-72
2022/04/10 02:07:04;;;;;;;;;;;1.30;99.90;;;;;;5057140;28;20284;-71
2022/04/10 02:09:29;;;;;;;;;;;1.30;99.90;;;;;;5073649;28;19951;-72
2022/04/10 02:11:55;;;;;;;;;;;1.40;99.90;;;;;;5073523;28;19961;-72
2022/04/10 02:14:20;;;;;;;;;;;1.40;99.90;;;;;;5073295;28;19917;-72
2022/04/10 02:16:46;;;;;;;;;;;1.50;99.90;;;;;;5072766;28;19912;-71
2022/04/10 02:19:11;;;;;;;;;;;1.50;99.90;;;;;;5075024;28;20042;-71
2022/04/10 02:21:37;;;;;;;;;;;1.50;99.90;;;;;;5054317;28;20011;-72
2022/04/10 02:24:03;;;;;;;;;;;1.40;99.90;;;;;;5074728;28;19939;-72
2022/04/10 02:26:28;;;;;;;;;;;1.50;99.90;;;;;;5056553;28;19935;-72
2022/04/10 02:28:54;;;;;;;;;;;1.50;99.90;;;;;;5073732;28;19956;-72
2022/04/10 02:31:20;;;;;;;;;;;1.60;99.90;;;;;;5072547;28;19918;-72
2022/04/10 02:33:45;;;;;;;;;;;1.50;99.90;;;;;;5072404;28;19934;-72
2022/04/10 02:36:11;;;;;;;;;;;1.50;99.90;;;;;;5074590;28;19913;-72
2022/04/10 02:38:37;;;;;;;;;;;1.40;99.90;;;;;;5072009;28;19919;-72
2022/04/10 02:41:02;;;;;;;;;;;1.40;99.90;;;;;;5073309;28;19957;-72
2022/04/10 02:43:28;;;;;;;;;;;1.40;99.90;;;;;;5053298;28;19920;-72
2022/04/10 02:45:53;;;;;;;;;;;1.30;99.90;;;;;;5056267;28;19943;-72
2022/04/10 02:48:19;;;;;;;;;;;1.50;99.90;;;;;;5073937;28;20215;-72
2022/04/10 02:50:44;;;;;;;;;;;1.60;99.90;;;;;;5070537;28;20442;-72
2022/04/10 02:53:10;;;;;;;;;;;1.50;99.90;;;;;;5071914;28;19932;-72
2022/04/10 02:55:35;;;;;;;;;;;1.40;99.90;;;;;;5063798;28;19913;-72
2022/04/10 02:58:01;;;;;;;;;;;1.30;99.90;;;;;;5065108;28;19951;-72
2022/04/10 03:00:27;;;;;;;;;;;1.30;99.90;;;;;;5073174;28;19927;-72
2022/04/10 03:02:52;;;;;;;;;;;1.20;99.90;;;;;;5072079;28;19939;-71
2022/04/10 03:05:18;;;;;;;;;;;1.20;99.90;;;;;;5073356;28;19920;-72
2022/04/10 03:07:43;;;;;;;;;;;1.20;99.90;;;;;;5072695;28;19952;-72
2022/04/10 03:10:09;;;;;;;;;;;1.10;99.90;;;;;;5074096;28;19925;-72
2022/04/10 03:12:34;;;;;;;;;;;0.90;99.90;;;;;;5073136;28;19919;-71
2022/04/10 03:15:00;;;;;;;;;;;1.00;99.90;;;;;;5073615;28;19928;-72
2022/04/10 03:17:25;;;;;;;;;;;1.00;99.90;;;;;;5073886;28;20365;-72
2022/04/10 03:19:51;;;;;;;;;;;0.90;99.90;;;;;;5072707;28;19999;-72
2022/04/10 03:22:17;;;;;;;;;;;1.00;99.90;;;;;;5073683;28;19966;-71
2022/04/10 03:24:42;;;;;;;;;;;0.90;99.90;;;;;;5073895;28;20303;-72
2022/04/10 03:27:08;;;;;;;;;;;0.80;99.90;;;;;;5055765;28;19962;-71
2022/04/10 03:29:33;;;;;;;;;;;0.80;99.90;;;;;;5053949;28;19925;-72
2022/04/10 03:31:59;;;;;;;;;;;0.70;99.90;;;;;;5073820;28;20007;-72
2022/04/10 03:34:24;;;;;;;;;;;0.60;99.90;;;;;;5055817;28;19917;-72
2022/04/10 03:36:50;;;;;;;;;;;0.50;99.90;;;;;;5072530;28;20277;-71
2022/04/10 03:39:15;;;;;;;;;;;0.60;99.90;;;;;;5072606;28;20226;-72
2022/04/10 03:41:41;;;;;;;;;;;0.50;99.90;;;;;;5055354;28;20302;-71
2022/04/10 03:44:07;;;;;;;;;;;0.40;99.90;;;;;;5073724;28;19916;-72
2022/04/10 03:46:32;;;;;;;;;;;0.40;99.90;;;;;;5071740;28;19923;-72
2022/04/10 03:48:58;;;;;;;;;;;0.20;99.90;;;;;;5073079;28;19934;-72
2022/04/10 03:51:23;;;;;;;;;;;0.30;99.90;;;;;;5073642;28;19974;-72
2022/04/10 03:53:49;;;;;;;;;;;0.30;99.90;;;;;;5072302;28;20364;-72
2022/04/10 03:56:14;;;;;;;;;;;0.30;99.90;;;;;;5073568;28;19919;-72
2022/04/10 03:58:40;;;;;;;;;;;0.20;99.90;;;;;;5062113;28;19920;-71
2022/04/10 04:01:05;;;;;;;;;;;0.20;99.90;;;;;;5074656;28;19919;-71
2022/04/10 04:03:31;;;;;;;;;;;0.20;99.90;;;;;;5067080;28;19966;-71
2022/04/10 04:05:57;;;;;;;;;;;0.20;99.90;;;;;;5059123;28;19919;-71
2022/04/10 04:08:22;;;;;;;;;;;0.30;99.90;;;;;;5076804;28;19912;-72
2022/04/10 04:10:48;;;;;;;;;;;0.30;99.90;;;;;;5059325;28;19999;-71
2022/04/10 04:13:14;;;;;;;;;;;0.30;99.90;;;;;;5059096;28;20265;-72
2022/04/10 04:15:39;;;;;;;;;;;0.30;99.90;;;;;;5076063;28;19919;-71
2022/04/10 04:18:05;;;;;;;;;;;0.30;99.90;;;;;;5058685;28;19952;-71
2022/04/10 04:20:30;;;;;;;;;;;0.30;99.90;;;;;;5056972;28;19925;-71
2022/04/10 04:22:56;;;;;;;;;;;0.40;99.90;;;;;;5076741;28;19912;-71
2022/04/10 04:25:21;;;;;;;;;;;0.30;99.90;;;;;;5042303;28;19939;-71
2022/04/10 04:27:47;;;;;;;;;;;0.40;99.90;;;;;;5058961;28;19919;-71
2022/04/10 04:30:13;;;;;;;;;;;0.50;99.90;;;;;;5076199;28;19913;-71
2022/04/10 04:32:38;;;;;;;;;;;0.40;99.90;;;;;;5075761;28;20440;-71
2022/04/10 04:35:04;;;;;;;;;;;0.50;99.90;;;;;;5075827;28;20307;-71
2022/04/10 04:37:30;;;;;;;;;;;0.50;99.90;;;;;;5057322;28;19920;-71
2022/04/10 04:39:55;;;;;;;;;;;0.50;99.90;;;;;;5076040;28;19961;-71
2022/04/10 04:42:21;;;;;;;;;;;0.50;99.90;;;;;;5074993;28;20012;-71
2022/04/10 04:44:46;;;;;;;;;;;0.50;99.90;;;;;;5042242;28;19966;-72
2022/04/10 04:47:12;;;;;;;;;;;0.40;99.90;;;;;;5073540;28;19913;-72
2022/04/10 04:49:37;;;;;;;;;;;0.40;99.90;;;;;;5058544;28;19928;-71
2022/04/10 04:52:03;;;;;;;;;;;0.40;99.90;;;;;;5058364;28;19912;-71
2022/04/10 04:54:30;;;;;;;;;;;0.40;99.90;;;;;;5074049;28;19927;-71
2022/04/10 04:56:56;;;;;;;;;;;0.50;99.90;;;;;;5074493;28;19922;-71
2022/04/10 04:59:21;;;;;;;;;;;0.50;99.90;;;;;;5075707;28;19939;-72
2022/04/10 05:01:47;;;;;;;;;;;0.50;99.90;;;;;;5048065;28;20355;-71
2022/04/10 05:04:12;;;;;;;;;;;0.50;99.90;;;;;;5074069;28;19966;-71
2022/04/10 05:06:38;;;;;;;;;;;0.60;99.90;;;;;;5063334;28;19997;-71
2022/04/10 05:09:04;;;;;;;;;;;0.60;99.90;;;;;;5076143;28;20003;-72
2022/04/10 05:11:30;;;;;;;;;;;0.60;99.90;;;;;;5074087;28;19974;-71
2022/04/10 05:13:56;;;;;;;;;;;0.70;99.90;;;;;;5057195;28;19916;-71
2022/04/10 05:16:24;;;;;;;;;;;0.70;99.90;;;;;;5057307;28;19957;-71
2022/04/10 05:18:50;;;;;;;;;;;0.90;99.90;;;;;;5070808;28;19913;-71
2022/04/10 05:21:15;;;;;;;;;;;1.00;99.90;;;;;;5052430;28;19919;-72
2022/04/10 05:23:41;;;;;;;;;;;1.00;99.90;;;;;;5052763;28;20227;-71
2022/04/10 05:26:07;;;;;;;;;;;1.10;99.90;;;;;;5070263;28;19913;-71
2022/04/10 05:28:34;;;;;;;;;;;1.20;99.90;;;;;;5071893;28;20303;-71
2022/04/10 05:31:03;;;;;;;;;;;1.40;99.90;;;;;;5072900;28;19924;-72
2022/04/10 05:33:29;;;;;;;;;;;1.70;99.90;;;;;;5057419;28;19920;-70
2022/04/10 05:35:55;;;;;;;;;;;2.00;99.90;;;;;;5056038;28;20561;-72
2022/04/10 05:38:22;;;;;;;;;;;2.00;99.90;;;;;;5075027;28;20022;-71
2022/04/10 05:40:52;;;;;;;;;;;2.10;99.90;;;;;;5073329;28;19919;-70
2022/04/10 05:43:19;;;;;;;;;;;2.10;99.90;;;;;;5073327;28;19917;-70
2022/04/10 05:45:44;;;;;;;;;;;2.10;99.90;;;;;;5074281;28;19928;-71
2022/04/10 05:48:10;;;;;;;;;;;2.20;99.90;;;;;;5073023;28;19916;-71
2022/04/10 05:50:36;;;;;;;;;;;2.30;99.90;;;;;;5057110;28;19912;-71
2022/04/10 05:53:01;;;;;;;;;;;2.20;99.90;;;;;;5074190;28;19943;-72
2022/04/10 05:55:28;;;;;;;;;;;2.40;99.90;;;;;;5075228;28;19912;-72
2022/04/10 05:57:54;;;;;;;;;;;2.50;99.90;;;;;;5057393;28;20623;-71
2022/04/10 06:00:21;;;;;;;;;;;2.70;99.90;;;;;;5075264;28;20002;-72
2022/04/10 06:02:47;;;;;;;;;;;2.80;99.90;;;;;;5055983;28;20050;-71
2022/04/10 06:05:12;;;;;;;;;;;2.80;99.90;;;;;;5063621;28;20015;-71
2022/04/10 06:07:38;;;;;;;;;;;2.90;99.90;;;;;;5074414;28;20614;-72
2022/04/10 06:10:04;;;;;;;;;;;2.90;99.90;;;;;;5053658;28;19929;-72
2022/04/10 06:12:30;;;;;;;;;;;3.00;99.90;;;;;;5049946;28;20007;-72
2022/04/10 06:14:56;;;;;;;;;;;3.10;99.90;;;;;;5043921;28;20004;-72
2022/04/10 06:17:22;;;;;;;;;;;3.30;99.90;;;;;;5053644;28;19959;-71
2022/04/10 06:19:47;;;;;;;;;;;3.50;99.90;;;;;;5052086;28;19919;-72
2022/04/10 06:22:14;;;;;;;;;;;3.70;99.90;;;;;;5054602;28;19999;-72
2022/04/10 06:24:40;;;;;;;;;;;3.90;99.90;;;;;;5051755;28;20304;-73
2022/04/10 06:27:05;;;;;;;;;;;4.00;99.90;;;;;;5055097;28;19920;-72
2022/04/10 06:29:31;;;;;;;;;;;4.00;99.90;;;;;;5053940;28;20347;-73
2022/04/10 06:31:56;;;;;;;;;;;4.10;99.90;;;;;;5053005;28;19913;-73
2022/04/10 06:34:22;;;;;;;;;;;4.20;99.90;;;;;;5052459;28;19917;-73
2022/04/10 06:36:48;;;;;;;;;;;4.30;99.90;;;;;;5051680;28;19994;-72
2022/04/10 06:39:14;;;;;;;;;;;4.50;99.90;;;;;;5052351;28;19919;-73
2022/04/10 06:41:39;;;;;;;;;;;4.60;99.90;;;;;;5051916;28;19966;-72
2022/04/10 06:44:05;;;;;;;;;;;4.80;99.90;;;;;;5050234;28;19917;-73
2022/04/10 06:46:30;;;;;;;;;;;5.00;99.90;;;;;;5053120;28;19960;-73
2022/04/10 06:48:56;;;;;;;;;;;5.40;99.90;;;;;;5053529;28;19920;-72
2022/04/10 06:51:21;;;;;;;;;;;5.90;99.90;;;;;;5051736;28;19913;-73
2022/04/10 06:53:47;;;;;;;;;;;6.50;99.90;;;;;;5049766;28;19916;-73
2022/04/10 06:56:13;;;;;;;;;;;7.10;99.90;;;;;;5051857;28;19921;-73
2022/04/10 06:58:38;;;;;;;;;;;7.20;99.90;;;;;;5052564;28;19916;-72
2022/04/10 07:01:04;;;;;;;;;;;7.20;99.90;;;;;;5051334;28;20307;-73
2022/04/10 07:03:29;;;;;;;;;;;7.00;99.90;;;;;;5052790;28;20308;-72
2022/04/10 07:05:55;;;;;;;;;;;6.70;99.90;;;;;;5052623;28;19916;-72
2022/04/10 07:08:20;;;;;;;;;;;6.40;99.90;;;;;;5053424;28;19916;-73
2022/04/10 07:10:46;;;;;;;;;;;6.10;99.90;;;;;;5049975;28;19951;-73
2022/04/10 07:13:17;;;;;;;;;;;5.70;99.90;;;;;;5042080;28;19948;-72
2022/04/10 07:15:43;;;;;;;;;;;5.60;99.90;;;;;;5045494;28;20205;-72
2022/04/10 07:18:08;;;;;;;;;;;5.80;99.90;;;;;;5050756;28;19917;-72
2022/04/10 07:20:34;;;;;;;;;;;6.50;99.90;;;;;;5052674;28;19917;-72
2022/04/10 07:25:44;;;;;;;;;;;6.70;99.90;;;;;;5053210;28;19959;-73
2022/04/10 07:28:09;;;;;;;;;;;7.10;99.90;;;;;;5053019;28;20247;-73
2022/04/10 07:30:35;;;;;;;;;;;7.70;99.90;;;;;;5053172;28;19944;-72
2022/04/10 07:33:00;;;;;;;;;;;8.20;99.90;;;;;;5051779;28;19964;-73
2022/04/10 07:35:26;;;;;;;;;;;8.80;99.90;;;;;;5052784;28;19913;-73
2022/04/10 07:37:52;;;;;;;;;;;9.30;99.90;;;;;;5055983;28;19918;-73
2022/04/10 07:40:21;;;;;;;;;;;10.00;99.90;;;;;;5057860;28;19920;-73
2022/04/10 07:42:46;;;;;;;;;;;9.80;99.90;;;;;;5054778;28;19913;-73
2022/04/10 07:47:57;;;;;;;;;;;10.80;99.90;;;;;;5056588;28;19920;-73
2022/04/10 07:50:23;;;;;;;;;;;11.10;99.90;;;;;;5057158;28;19913;-73
2022/04/10 07:52:48;;;;;;;;;;;11.50;99.90;;;;;;5054816;28;20420;-72
2022/04/10 07:55:14;;;;;;;;;;;11.60;99.90;;;;;;5056114;28;19955;-73
2022/04/10 07:57:39;;;;;;;;;;;12.00;99.90;;;;;;5056619;28;19924;-73
2022/04/10 08:00:05;;;;;;;;;;;12.60;99.90;;;;;;5055554;28;19916;-73
2022/04/10 08:02:31;;;;;;;;;;;12.40;99.90;;;;;;5056133;28;19912;-73
2022/04/10 08:04:56;;;;;;;;;;;12.80;99.90;;;;;;5054305;28;19919;-73
2022/04/10 08:07:22;;;;;;;;;;;13.20;99.90;;;;;;5054564;28;20227;-73
2022/04/10 08:09:47;;;;;;;;;;;13.50;99.90;;;;;;5060725;28;19920;-73
2022/04/10 08:12:13;;;;;;;;;;;13.20;99.90;;;;;;5077217;28;19920;-73
2022/04/10 08:14:39;;;;;;;;;;;13.20;99.90;;;;;;5050693;28;19920;-73
2022/04/10 08:17:05;;;;;;;;;;;12.90;99.90;;;;;;5057526;28;19925;-73
2022/04/10 08:19:30;;;;;;;;;;;11.60;99.90;;;;;;5058241;28;19961;-74
2022/04/10 08:21:56;;;;;;;;;;;10.70;99.90;;;;;;5077231;28;20261;-73
2022/04/10 08:24:22;;;;;;;;;;;10.10;99.90;;;;;;5070359;28;19913;-73
2022/04/10 08:26:47;;;;;;;;;;;10.00;99.90;;;;;;5072962;28;19935;-73
2022/04/10 08:29:13;;;;;;;;;;;9.70;99.90;;;;;;5071399;28;19913;-73
2022/04/10 08:31:39;;;;;;;;;;;9.30;99.90;;;;;;5076383;28;19917;-73
2022/04/10 08:34:04;;;;;;;;;;;8.90;99.90;;;;;;5058235;28;20211;-73
2022/04/10 08:36:32;;;;;;;;;;;8.80;99.90;;;;;;5074038;28;19913;-73
2022/04/10 08:38:57;;;;;;;;;;;8.60;99.90;;;;;;5076496;28;20245;-73
2022/04/10 08:41:29;;;;;;;;;;;9.30;99.90;;;;;;5075919;28;19962;-73
2022/04/10 08:43:55;;;;;;;;;;;9.20;99.90;;;;;;5075131;28;19917;-73
2022/04/10 08:46:21;;;;;;;;;;;8.90;99.90;;;;;;5076528;28;19920;-73
2022/04/10 08:48:49;;;;;;;;;;;9.20;99.90;;;;;;5054314;28;19959;-73
2022/04/10 08:51:14;;;;;;;;;;;9.60;99.90;;;;;;5058132;28;19917;-73
2022/04/10 08:53:40;;;;;;;;;;;8.90;99.90;;;;;;5066193;28;19962;-73
2022/04/10 08:56:08;;;;;;;;;;;8.50;99.90;;;;;;5058743;28;19917;-73
2022/04/10 08:58:34;;;;;;;;;;;8.40;99.90;;;;;;5075688;28;19913;-73
2022/04/10 09:00:59;;;;;;;;;;;8.60;99.90;;;;;;5058790;28;19927;-72
2022/04/10 09:03:25;;;;;;;;;;;8.50;99.90;;;;;;5073185;28;19921;-73
2022/04/10 09:06:04;;;;;;;;;;;8.20;99.90;;;;;;5058414;28;19919;-73
2022/04/10 09:08:29;;;;;;;;;;;8.20;99.90;;;;;;5075123;28;19931;-73
2022/04/10 09:10:57;;;;;;;;;;;8.50;99.90;;;;;;5075427;28;19928;-72
2022/04/10 09:13:27;;;;;;;;;;;8.80;99.90;;;;;;5072652;28;19924;-73
2022/04/10 09:15:59;;;;;;;;;;;9.00;99.90;;;;;;5075452;28;19913;-73
2022/04/10 09:18:24;;;;;;;;;;;8.90;99.90;;;;;;5073564;28;19927;-73
2022/04/10 09:21:04;;;;;;;;;;;8.80;99.90;;;;;;5075977;28;19913;-72
2022/04/10 09:23:29;;;;;;;;;;;8.60;99.90;;;;;;5074096;28;19924;-73
2022/04/10 09:25:57;;;;;;;;;;;8.30;99.90;;;;;;5057042;28;19917;-73
2022/04/10 09:28:39;;;;;;;;;;;8.50;99.90;;;;;;5074149;28;19944;-73
2022/04/10 09:31:23;;;;;;;;;;;8.70;99.90;;;;;;5073958;28;20009;-73
2022/04/10 09:33:49;;;;;;;;;;;8.50;99.90;;;;;;5073974;28;19920;-73
2022/04/10 09:36:26;;;;;;;;;;;8.40;99.90;;;;;;5058126;28;19923;-72
2022/04/10 09:38:52;;;;;;;;;;;8.50;99.90;;;;;;5054175;28;19912;-73
2022/04/10 09:41:19;;;;;;;;;;;8.90;99.90;;;;;;5075202;28;19974;-73
2022/04/10 09:43:45;;;;;;;;;;;9.30;99.90;;;;;;5074882;28;20010;-73
2022/04/10 09:46:13;;;;;;;;;;;9.50;99.90;;;;;;5075030;28;20256;-73
2022/04/10 09:48:39;;;;;;;;;;;9.80;99.90;;;;;;5073095;28;19954;-73
2022/04/10 09:51:05;;;;;;;;;;;10.50;99.90;;;;;;5075197;28;19920;-73
2022/04/10 09:53:32;;;;;;;;;;;10.20;99.90;;;;;;5066200;28;20414;-73
2022/04/10 09:56:00;;;;;;;;;;;9.60;99.90;;;;;;5066157;28;19919;-73
2022/04/10 09:58:26;;;;;;;;;;;9.40;99.90;;;;;;5073514;28;19920;-73
2022/04/10 10:00:54;;;;;;;;;;;9.20;99.90;;;;;;5054479;28;20200;-73
2022/04/10 10:03:20;;;;;;;;;;;9.40;99.90;;;;;;5073943;28;19918;-73
2022/04/10 10:05:47;;;;;;;;;;;9.30;99.90;;;;;;5073463;28;20012;-73
2022/04/10 10:08:12;;;;;;;;;;;9.70;99.90;;;;;;5074873;28;19912;-73
2022/04/10 10:10:38;;;;;;;;;;;9.80;99.90;;;;;;5056763;28;20224;-73
2022/04/10 10:13:08;;;;;;;;;;;10.10;99.90;;;;;;5074688;28;20015;-73
2022/04/10 10:15:34;;;;;;;;;;;9.70;99.90;;;;;;5073229;28;19955;-73
2022/04/10 10:18:01;;;;;;;;;;;9.70;99.90;;;;;;5054035;28;19962;-73
2022/04/10 10:20:27;;;;;;;;;;;9.90;99.90;;;;;;5054540;28;19966;-73
2022/04/10 10:22:53;;;;;;;;;;;10.00;99.90;;;;;;5069347;28;19920;-73
2022/04/10 10:25:24;;;;;;;;;;;10.30;99.90;;;;;;5074916;28;19924;-73
2022/04/10 10:27:53;;;;;;;;;;;9.90;99.90;;;;;;5074898;28;20296;-73
2022/04/10 10:30:39;;;;;;;;;;;9.80;99.90;;;;;;5069796;28;20014;-73
2022/04/10 10:33:18;;;;;;;;;;;9.50;99.90;;;;;;5063315;28;19923;-73
2022/04/10 10:35:47;;;;;;;;;;;9.40;99.90;;;;;;5074395;28;19920;-73
2022/04/10 10:38:22;;;;;;;;;;;9.60;99.90;;;;;;5057310;28;19912;-73
2022/04/10 10:40:52;;;;;;;;;;;9.70;99.90;;;;;;5056114;28;19913;-73
2022/04/10 10:43:24;;;;;;;;;;;9.90;99.90;;;;;;5051439;28;20003;-74
2022/04/10 10:45:50;;;;;;;;;;;9.60;99.90;;;;;;5072108;28;19939;-73
2022/04/10 10:48:33;;;;;;;;;;;9.40;99.90;;;;;;5073310;28;19913;-73
2022/04/10 10:51:03;;;;;;;;;;;9.40;99.90;;;;;;5067716;28;19931;-73
2022/04/10 10:53:47;;;;;;;;;;;9.70;99.90;;;;;;5050636;28;19970;-73
2022/04/10 10:56:33;;;;;;;;;;;9.80;99.90;;;;;;5069627;28;19935;-73
2022/04/10 10:59:17;;;;;;;;;;;9.90;99.90;;;;;;5061613;28;20329;-73
2022/04/10 11:02:06;;;;;;;;;;;10.10;99.90;;;;;;5070282;28;19956;-73
2022/04/10 11:04:33;;;;;;;;;;;10.60;99.90;;;;;;5063427;28;19967;-73
2022/04/10 11:07:19;;;;;;;;;;;11.30;99.90;;;;;;5071329;28;19923;-73
2022/04/10 11:09:58;;;;;;;;;;;10.80;99.90;;;;;;5047205;28;19921;-72
2022/04/10 11:12:33;;;;;;;;;;;10.70;99.90;;;;;;5073444;28;19916;-73
2022/04/10 11:15:02;;;;;;;;;;;10.80;99.90;;;;;;5055215;28;19920;-73
2022/04/10 11:17:28;;;;;;;;;;;10.80;98.50;;;;;;5070999;28;19962;-73
2022/04/10 11:19:55;;;;;;;;;;;10.50;99.90;;;;;;5071179;28;19970;-73
2022/04/10 11:22:22;;;;;;;;;;;10.90;99.90;;;;;;5055869;28;19957;-73
2022/04/10 11:24:51;;;;;;;;;;;11.10;99.90;;;;;;5070972;28;19966;-72
2022/04/10 11:27:37;;;;;;;;;;;10.40;99.90;;;;;;5073017;28;20280;-72
2022/04/10 11:30:04;;;;;;;;;;;10.10;98.30;;;;;;5055545;28;19939;-73
2022/04/10 11:32:39;;;;;;;;;;;10.30;99.80;;;;;;5071905;28;19920;-72
2022/04/10 11:35:05;;;;;;;;;;;10.70;98.40;;;;;;5072298;28;19993;-72
2022/04/10 11:37:38;;;;;;;;;;;11.20;96.60;;;;;;5056160;28;20322;-73
2022/04/10 11:40:04;;;;;;;;;;;11.80;97.20;;;;;;5053705;28;20011;-73
2022/04/10 11:42:31;;;;;;;;;;;12.50;96.50;;;;;;5070206;28;19920;-73
2022/04/10 11:44:57;;;;;;;;;;;12.30;97.20;;;;;;5071980;28;20211;-73
2022/04/10 11:47:22;;;;;;;;;;;11.50;99.10;;;;;;5073577;28;19999;-75
2022/04/10 11:49:54;;;;;;;;;;;10.60;96.70;;;;;;5073068;28;20318;-73
2022/04/10 11:52:21;;;;;;;;;;;10.30;97.60;;;;;;5072372;28;19913;-73
2022/04/10 11:54:49;;;;;;;;;;;10.10;99.10;;;;;;5070854;28;19916;-73
2022/04/10 11:57:15;;;;;;;;;;;10.10;98.90;;;;;;5055041;28;19964;-73
2022/04/10 11:59:43;;;;;;;;;;;10.20;99.40;;;;;;5061722;28;19965;-73
2022/04/10 12:02:10;;;;;;;;;;;10.80;99.90;;;;;;5069524;28;19912;-73
2022/04/10 12:04:36;;;;;;;;;;;11.50;98.80;;;;;;5045971;28;19923;-73
2022/04/10 12:07:12;;;;;;;;;;;11.80;96.60;;;;;;5073819;28;19916;-73
2022/04/10 12:09:37;;;;;;;;;;;11.70;95.80;;;;;;5053844;28;19916;-73
2022/04/10 12:12:03;;;;;;;;;;;11.10;96.40;;;;;;5054384;28;19919;-73
2022/04/10 12:14:29;;;;;;;;;;;10.60;96.70;;;;;;5055928;28;19946;-72
2022/04/10 12:16:54;;;;;;;;;;;10.10;98.70;;;;;;5038386;28;19920;-72
2022/04/10 12:19:30;;;;;;;;;;;10.20;98.20;;;;;;5054839;28;19916;-72
2022/04/10 12:21:56;;;;;;;;;;;9.90;99.10;;;;;;5074073;28;19966;-73
2022/04/10 12:24:22;;;;;;;;;;;9.80;99.90;;;;;;5075618;28;19917;-73
2022/04/10 12:26:48;;;;;;;;;;;10.20;99.90;;;;;;5075904;28;20022;-73
2022/04/10 12:29:14;;;;;;;;;;;10.60;96.60;;;;;;5075560;28;20228;-73
2022/04/10 12:31:41;;;;;;;;;;;10.60;97.40;;;;;;5075635;28;19919;-72
2022/04/10 12:34:10;;;;;;;;;;;10.40;99.50;;;;;;5074424;28;19939;-73
2022/04/10 12:36:44;;;;;;;;;;;10.70;98.20;;;;;;5075700;28;20216;-73
2022/04/10 12:39:09;;;;;;;;;;;11.10;98.00;;;;;;5057542;28;20334;-73
2022/04/10 12:41:35;;;;;;;;;;;11.20;96.50;;;;;;5057587;28;19928;-73
2022/04/10 12:44:04;;;;;;;;;;;11.30;95.70;;;;;;5072713;28;19912;-73
2022/04/10 12:46:33;;;;;;;;;;;11.50;95.60;;;;;;5072792;28;19970;-73
2022/04/10 12:49:12;;;;;;;;;;;11.20;95.20;;;;;;5056093;28;19923;-73
2022/04/10 12:51:48;;;;;;;;;;;11.10;95.30;;;;;;5050648;28;20314;-72
2022/04/10 12:54:14;;;;;;;;;;;11.30;97.30;;;;;;5070589;28;19927;-72
2022/04/10 12:56:40;;;;;;;;;;;11.40;96.20;;;;;;5068564;28;20219;-73
2022/04/10 12:59:05;;;;;;;;;;;11.40;95.20;;;;;;5067952;28;19920;-73
2022/04/10 13:01:31;;;;;;;;;;;11.40;96.60;;;;;;5069156;28;19994;-72
2022/04/10 13:04:01;;;;;;;;;;;11.40;96.50;;;;;;5060062;28;19923;-73
2022/04/10 13:06:45;;;;;;;;;;;11.60;95.30;;;;;;5071023;28;19912;-74
2022/04/10 13:09:12;;;;;;;;;;;12.20;97.30;;;;;;5060483;28;19989;-73
2022/04/10 13:11:37;;;;;;;;;;;12.80;96.90;;;;;;5068126;28;19927;-73
2022/04/10 13:14:06;;;;;;;;;;;13.00;94.70;;;;;;5052745;28;20227;-73
2022/04/10 13:16:35;;;;;;;;;;;13.30;95.60;;;;;;5069929;28;19913;-73
2022/04/10 13:19:05;;;;;;;;;;;12.90;94.00;;;;;;5051882;28;20392;-73
2022/04/10 13:21:32;;;;;;;;;;;13.10;93.50;;;;;;5068174;28;19920;-73
2022/04/10 13:23:58;;;;;;;;;;;12.90;95.30;;;;;;5070959;28;19928;-72
2022/04/10 13:26:26;;;;;;;;;;;12.80;93.10;;;;;;5064913;28;19916;-74
2022/04/10 13:28:52;;;;;;;;;;;12.90;93.30;;;;;;5049527;28;19962;-73
2022/04/10 13:31:18;;;;;;;;;;;13.10;93.40;;;;;;5066118;28;19920;-73
2022/04/10 13:33:44;;;;;;;;;;;13.10;93.90;;;;;;5045605;28;19928;-73
2022/04/10 13:36:10;;;;;;;;;;;13.30;94.60;;;;;;5051414;28;19913;-73
2022/04/10 13:38:36;;;;;;;;;;;13.40;96.40;;;;;;5074210;28;20215;-73
2022/04/10 13:41:02;;;;;;;;;;;13.80;95.90;;;;;;5072854;28;19927;-73
2022/04/10 13:43:27;;;;;;;;;;;14.10;96.20;;;;;;5074890;28;20370;-73
2022/04/10 13:45:53;;;;;;;;;;;14.40;95.90;;;;;;5074986;28;20015;-74
2022/04/10 13:48:18;;;;;;;;;;;14.50;94.90;;;;;;5073131;28;20251;-73
2022/04/10 13:50:44;;;;;;;;;;;14.70;94.30;;;;;;5074617;28;19935;-73
2022/04/10 13:53:10;;;;;;;;;;;14.60;93.40;;;;;;5057232;28;20003;-73
2022/04/10 13:55:35;;;;;;;;;;;14.80;94.50;;;;;;5051899;28;19920;-73
2022/04/10 13:58:01;;;;;;;;;;;14.80;94.70;;;;;;5073230;28;20322;-73
2022/04/10 14:00:26;;;;;;;;;;;15.00;91.30;;;;;;5074183;28;19916;-74
2022/04/10 14:02:52;;;;;;;;;;;14.80;89.60;;;;;;5075326;28;19912;-73
2022/04/10 14:05:17;;;;;;;;;;;14.90;90.30;;;;;;5055910;28;19963;-73
2022/04/10 14:07:43;;;;;;;;;;;14.80;93.00;;;;;;5073914;28;19920;-73
2022/04/10 14:10:09;;;;;;;;;;;14.60;88.80;;;;;;5065677;28;19924;-73
2022/04/10 14:12:34;;;;;;;;;;;14.50;92.00;;;;;;5075125;28;19984;-73
2022/04/10 14:15:00;;;;;;;;;;;14.40;93.60;;;;;;5048724;28;19916;-73
2022/04/10 14:17:26;;;;;;;;;;;14.40;92.30;;;;;;5072981;28;19912;-73
2022/04/10 14:19:52;;;;;;;;;;;14.50;92.50;;;;;;5056865;28;20208;-73
2022/04/10 14:22:17;;;;;;;;;;;14.70;91.60;;;;;;5073955;28;19917;-73
2022/04/10 14:24:43;;;;;;;;;;;14.70;92.50;;;;;;5052752;28;19939;-73
2022/04/10 14:27:08;;;;;;;;;;;14.40;91.60;;;;;;5070996;28;19927;-73
2022/04/10 14:29:35;;;;;;;;;;;14.70;90.40;;;;;;5069308;28;20354;-73